CL64 weather

Washington Hospital Parking Structure Heliport
Fremont, California, United States

Public forecast

Using degrees Fahrenheit for public forecast. Weather courtesy of forecast.io.

METAR (pilot weather report)

Report is more than 2 hours old.

Closest report is Palo Alto Airport of Santa Clara County, 8.7 nm (16.1 km) SW. Retrieved 2019/06/25 03:47 UTC (5 hours ago):

KPAO 250347Z 35009KT 10SM BKN200 18/14 A2983 RMK LAST NOTAM/GPS/VOR N/A AT NIGHT

TAF (pilot weather forecast)

Closest forecast is Livermore Municipal Airport, 11.1 nm (20.6 km) NE. Retrieved 2019/06/25 06:30 UTC (2 hours ago):

TAF KLVK 250529Z 2506/2606 30008KT P6SM SKC FM250900 VRB03KT P6SM FEW200 FM251700 26005KT P6SM SKC FM252000 28011KT P6SM SKC FM252200 28013KT P6SM SKC FM260500 25007KT P6SM SKC